RYR141K EGPH-LOWW
Flight info
| Callsign | RYR141K |
|---|---|
| Flight time | N/A |
| Altitude | 25000 |
| Route | TLA Y96 OTBUN/N0452F370 DCT ERKIT N110 DOLAS L603 LAMSO DCT PETIK DCT NOMKA DCT OMELO DCT EVIKU DCT BITSI DCT MIKOV MIKOV8W |
| Aircraft | A320/M-SDE3FGHIRWY/LB1 |
Departure
| Time | 2026-04-22 14:59 |
|---|---|
| Airport | Edinburgh Airport (EGPH) |
Arrival
| Time | N/A |
|---|---|
| Airport | Vienna International Airport (LOWW) |
| Time | Latitude | Longitude | Altitude | Speed | Heading |
|---|---|---|---|---|---|
| 2026-04-22 14:35 | 55.94659 | -3.36617 | 101 ft | 0 kts | 91° |
| 2026-04-22 14:50 | 55.94659 | -3.36618 | 101 ft | 1 kts | 91° |
| 2026-04-22 14:50 | 55.94659 | -3.36644 | 101 ft | 3 kts | 85° |
| 2026-04-22 14:51 | 55.94656 | -3.36680 | 101 ft | 3 kts | 71° |
| 2026-04-22 14:51 | 55.94648 | -3.36712 | 102 ft | 3 kts | 50° |
| 2026-04-22 14:51 | 55.94634 | -3.36733 | 102 ft | 2 kts | 10° |
| 2026-04-22 14:51 | 55.94628 | -3.36735 | 102 ft | 0 kts | 359° |
| 2026-04-22 14:53 | 55.94645 | -3.36736 | 104 ft | 5 kts | 359° |
| 2026-04-22 14:53 | 55.94696 | -3.36736 | 104 ft | 10 kts | 359° |
| 2026-04-22 14:54 | 55.94755 | -3.36750 | 104 ft | 8 kts | 336° |
| 2026-04-22 14:54 | 55.94796 | -3.36780 | 105 ft | 7 kts | 354° |
| 2026-04-22 14:54 | 55.94853 | -3.36779 | 107 ft | 9 kts | 355° |
| 2026-04-22 14:54 | 55.94905 | -3.36813 | 108 ft | 6 kts | 326° |
| 2026-04-22 14:55 | 55.94927 | -3.36858 | 110 ft | 5 kts | 294° |
| 2026-04-22 14:55 | 55.94916 | -3.36927 | 109 ft | 8 kts | 236° |
| 2026-04-22 14:55 | 55.94873 | -3.37053 | 108 ft | 13 kts | 239° |
| 2026-04-22 14:55 | 55.94828 | -3.37187 | 108 ft | 13 kts | 239° |
| 2026-04-22 14:56 | 55.94779 | -3.37336 | 112 ft | 14 kts | 239° |
| 2026-04-22 14:56 | 55.94728 | -3.37487 | 113 ft | 17 kts | 239° |
| 2026-04-22 14:56 | 55.94668 | -3.37660 | 116 ft | 15 kts | 239° |
| 2026-04-22 14:56 | 55.94617 | -3.37807 | 116 ft | 14 kts | 239° |
| 2026-04-22 14:57 | 55.94591 | -3.37913 | 114 ft | 6 kts | 266° |
| 2026-04-22 14:57 | 55.94615 | -3.37977 | 113 ft | 6 kts | 328° |
| 2026-04-22 14:57 | 55.94665 | -3.38032 | 117 ft | 10 kts | 328° |
| 2026-04-22 14:57 | 55.94713 | -3.38094 | 118 ft | 3 kts | 342° |
| 2026-04-22 14:58 | 55.94723 | -3.38074 | 118 ft | 1 kts | 76° |
| 2026-04-22 14:58 | 55.94729 | -3.38048 | 119 ft | 0 kts | 58° |
| 2026-04-22 14:58 | 55.94805 | -3.37822 | 118 ft | 58 kts | 59° |
| 2026-04-22 14:58 | 55.95134 | -3.36858 | 115 ft | 120 kts | 58° |
| 2026-04-22 14:59 | 55.95585 | -3.35519 | 698 ft | 120 kts | 58° |
| 2026-04-22 14:59 | 55.96030 | -3.34279 | 1397 ft | 123 kts | 52° |
| 2026-04-22 14:59 | 55.96689 | -3.33175 | 1886 ft | 136 kts | 45° |
| 2026-04-22 14:59 | 55.97444 | -3.31959 | 2283 ft | 157 kts | 46° |
| 2026-04-22 15:00 | 55.98305 | -3.30567 | 2657 ft | 177 kts | 46° |
| 2026-04-22 15:00 | 55.99282 | -3.28985 | 2982 ft | 201 kts | 46° |
| 2026-04-22 15:00 | 56.00368 | -3.27227 | 3450 ft | 221 kts | 46° |
| 2026-04-22 15:00 | 56.01545 | -3.25328 | 4091 ft | 233 kts | 46° |
| 2026-04-22 15:01 | 56.02794 | -3.23313 | 4674 ft | 253 kts | 46° |
| 2026-04-22 15:01 | 56.04124 | -3.21154 | 5470 ft | 262 kts | 47° |
| 2026-04-22 15:01 | 56.05194 | -3.18543 | 6419 ft | 256 kts | 70° |
| 2026-04-22 15:01 | 56.05613 | -3.15630 | 7812 ft | 233 kts | 89° |
| 2026-04-22 15:02 | 56.05513 | -3.12805 | 8839 ft | 227 kts | 104° |
| 2026-04-22 15:02 | 56.04970 | -3.10172 | 9686 ft | 227 kts | 122° |
| 2026-04-22 15:02 | 56.03947 | -3.08023 | 10486 ft | 229 kts | 142° |
| 2026-04-22 15:02 | 56.02686 | -3.06308 | 11242 ft | 232 kts | 143° |
| 2026-04-22 15:03 | 56.01397 | -3.04556 | 12027 ft | 234 kts | 143° |
| 2026-04-22 15:03 | 56.00064 | -3.02737 | 12559 ft | 251 kts | 143° |
| 2026-04-22 15:03 | 55.98597 | -3.00787 | 12882 ft | 274 kts | 149° |
| 2026-04-22 15:03 | 55.96761 | -2.99509 | 13163 ft | 298 kts | 171° |
| 2026-04-22 15:04 | 55.94609 | -2.99811 | 13539 ft | 318 kts | 197° |
| 2026-04-22 15:04 | 55.92566 | -3.01345 | 14226 ft | 326 kts | 202° |
| 2026-04-22 15:04 | 55.90485 | -3.03018 | 14957 ft | 330 kts | 202° |
| 2026-04-22 15:04 | 55.88389 | -3.04723 | 15708 ft | 333 kts | 203° |
| 2026-04-22 15:05 | 55.86275 | -3.06440 | 16443 ft | 335 kts | 203° |
| 2026-04-22 15:05 | 55.84140 | -3.08164 | 17184 ft | 338 kts | 203° |
| 2026-04-22 15:05 | 55.81985 | -3.09894 | 17926 ft | 341 kts | 203° |
| 2026-04-22 15:05 | 55.79811 | -3.11632 | 18664 ft | 344 kts | 203° |
| 2026-04-22 15:06 | 55.77616 | -3.13383 | 19308 ft | 347 kts | 203° |
| 2026-04-22 15:06 | 55.75401 | -3.15142 | 19917 ft | 350 kts | 204° |
| 2026-04-22 15:06 | 55.73163 | -3.16914 | 20506 ft | 354 kts | 204° |
| 2026-04-22 15:06 | 55.70902 | -3.18705 | 21103 ft | 358 kts | 205° |
| 2026-04-22 15:07 | 55.68614 | -3.20523 | 21660 ft | 363 kts | 206° |
| 2026-04-22 15:07 | 55.66299 | -3.22368 | 22228 ft | 367 kts | 206° |
| 2026-04-22 15:07 | 55.63952 | -3.24233 | 22800 ft | 372 kts | 207° |
| 2026-04-22 15:07 | 55.61578 | -3.26113 | 23362 ft | 377 kts | 207° |
| 2026-04-22 15:08 | 55.59122 | -3.27835 | 23919 ft | 385 kts | 198° |
| 2026-04-22 15:08 | 55.56433 | -3.28423 | 24381 ft | 397 kts | 181° |
| 2026-04-22 15:08 | 55.53688 | -3.27521 | 24850 ft | 409 kts | 163° |
| 2026-04-22 15:08 | 55.51167 | -3.25099 | 25310 ft | 419 kts | 144° |
| 2026-04-22 15:09 | 55.49164 | -3.21312 | 25770 ft | 428 kts | 124° |
| 2026-04-22 15:09 | 55.47935 | -3.16508 | 26199 ft | 435 kts | 104° |
| 2026-04-22 15:09 | 55.47338 | -3.11265 | 26647 ft | 438 kts | 101° |
| 2026-04-22 15:09 | 55.46778 | -3.05968 | 27082 ft | 441 kts | 101° |
| 2026-04-22 15:10 | 55.46038 | -3.00706 | 27514 ft | 444 kts | 109° |
| 2026-04-22 15:10 | 55.44845 | -2.95684 | 27938 ft | 445 kts | 119° |
| 2026-04-22 15:10 | 55.43356 | -2.90968 | 28347 ft | 448 kts | 121° |
| 2026-04-22 15:10 | 55.41822 | -2.86173 | 28764 ft | 451 kts | 121° |
| 2026-04-22 15:11 | 55.40278 | -2.81347 | 29169 ft | 454 kts | 121° |
| 2026-04-22 15:11 | 55.38726 | -2.76502 | 29562 ft | 457 kts | 121° |
| 2026-04-22 15:11 | 55.37160 | -2.71618 | 29958 ft | 460 kts | 121° |
| 2026-04-22 15:11 | 55.35583 | -2.66705 | 30337 ft | 463 kts | 121° |
| 2026-04-22 15:12 | 55.33995 | -2.61762 | 30675 ft | 466 kts | 121° |
| 2026-04-22 15:12 | 55.32397 | -2.56794 | 31000 ft | 468 kts | 121° |
| 2026-04-22 15:12 | 55.30792 | -2.51811 | 31342 ft | 469 kts | 121° |
| 2026-04-22 15:12 | 55.29085 | -2.46927 | 31674 ft | 469 kts | 127° |
| 2026-04-22 15:13 | 55.27007 | -2.42526 | 32019 ft | 467 kts | 136° |
| 2026-04-22 15:13 | 55.24597 | -2.38748 | 32472 ft | 463 kts | 145° |
| 2026-04-22 15:13 | 55.22036 | -2.35361 | 32937 ft | 460 kts | 145° |
| 2026-04-22 15:13 | 55.19489 | -2.31980 | 33393 ft | 459 kts | 145° |
| 2026-04-22 15:14 | 55.16954 | -2.28606 | 33845 ft | 457 kts | 144° |
| 2026-04-22 15:14 | 55.14427 | -2.25250 | 34284 ft | 455 kts | 144° |
| 2026-04-22 15:14 | 55.11904 | -2.21913 | 34676 ft | 454 kts | 144° |
| 2026-04-22 15:14 | 55.09385 | -2.18588 | 35031 ft | 453 kts | 144° |
| 2026-04-22 15:15 | 55.06868 | -2.15278 | 35383 ft | 453 kts | 144° |
| 2026-04-22 15:15 | 55.04361 | -2.11982 | 35738 ft | 452 kts | 144° |
| 2026-04-22 15:15 | 55.01848 | -2.08676 | 36060 ft | 451 kts | 144° |
| 2026-04-22 15:15 | 54.99343 | -2.05395 | 36380 ft | 451 kts | 144° |
| 2026-04-22 15:16 | 54.96837 | -2.02124 | 36683 ft | 450 kts | 144° |
| 2026-04-22 15:16 | 54.94334 | -1.98859 | 36978 ft | 449 kts | 144° |
| 2026-04-22 15:16 | 54.91835 | -1.95596 | 37273 ft | 449 kts | 144° |
| 2026-04-22 15:16 | 54.89372 | -1.92379 | 37467 ft | 449 kts | 144° |
| 2026-04-22 15:17 | 54.84368 | -1.85880 | 37509 ft | 445 kts | 144° |
| 2026-04-22 15:17 | 54.79438 | -1.79507 | 37501 ft | 444 kts | 144° |
| 2026-04-22 15:18 | 54.74481 | -1.73112 | 37496 ft | 444 kts | 144° |
| 2026-04-22 15:18 | 54.69530 | -1.66735 | 37488 ft | 444 kts | 144° |
| 2026-04-22 15:19 | 54.64569 | -1.60361 | 37485 ft | 444 kts | 144° |
| 2026-04-22 15:19 | 54.59596 | -1.54010 | 37484 ft | 445 kts | 144° |
| 2026-04-22 15:20 | 54.54614 | -1.47670 | 37483 ft | 445 kts | 144° |
| 2026-04-22 15:20 | 54.49631 | -1.41337 | 37482 ft | 445 kts | 144° |
| 2026-04-22 15:21 | 54.44643 | -1.35013 | 37486 ft | 446 kts | 144° |
| 2026-04-22 15:21 | 54.39647 | -1.28702 | 37486 ft | 446 kts | 144° |
| 2026-04-22 15:22 | 54.34641 | -1.22401 | 37467 ft | 446 kts | 144° |
| 2026-04-22 15:22 | 54.29664 | -1.16152 | 37463 ft | 446 kts | 144° |
| 2026-04-22 15:23 | 54.24650 | -1.09876 | 37467 ft | 447 kts | 144° |
| 2026-04-22 15:23 | 54.19630 | -1.03623 | 37466 ft | 446 kts | 144° |
| 2026-04-22 15:24 | 54.14618 | -0.97383 | 37464 ft | 446 kts | 144° |
| 2026-04-22 15:24 | 54.09595 | -0.91151 | 37467 ft | 447 kts | 144° |
| 2026-04-22 15:25 | 54.04565 | -0.84938 | 37465 ft | 447 kts | 144° |
| 2026-04-22 15:25 | 53.99509 | -0.78786 | 37461 ft | 447 kts | 145° |
| 2026-04-22 15:26 | 53.94382 | -0.72802 | 37462 ft | 447 kts | 146° |
| 2026-04-22 15:26 | 53.89233 | -0.66858 | 37460 ft | 448 kts | 146° |